Thunder radar more information blitzortung!


Radar de pluja more information rain snow radar


Visita la nostra xarxa de llocs de meteo:

Template documentation
and downloads

And another site



No particular awareness of the weather is required.    There are no Weather-warnings

Pagina Historial Weather Underground text

Diari Resum Desembre 17, 2017 Unitats:  Mètric    Imperial   Tant
« Previous Dia
SegĂźent Dia »
Diari Setmana Mensual Anual Personalitzada
  Maxima: Minima: Media:
Temperatura: -17.8 °C -17 °C -13.6 °C
Punt de rosada: -17.8 °C -22.8 °C -21 °C
Humitat: Humidity % 31 % 39 %
Wind Speed: 0 km/h 0 km/h 7.6 km/h
RĂ fegues de vent: 0 km/h - -
Vent:- - SSW
Pression baro: 0 hPa 34567.7 hPa -
Precipitacions: 0 mm    
Historical Graphs
 
 
Dades de taula per Desembre 17, 2017
Temps Temperatura Punt de rosada Pression baro Vent Wind Speed RĂ fegues de vent Humitat Rainfall Rate (Hourly)
-17.8 °C -17.8 °C 0 hPa Calm     Humidity % 0 mm
00:00 -15.6 °C -21.3 °C 34635.4 hPa WSW 7.7 km/h 7.7 km/h 47 % 0 mm
00:01 -14.9 °C -21.4 °C 34567.7 hPa NNE 6 km/h   43 % 0 mm
00:02 -14.9 °C -21.4 °C 34567.7 hPa NNE 6 km/h   43 % 0 mm
00:07 -15.1 °C -21.5 °C 34567.7 hPa WSW 8 km/h 8 km/h 43 % 0 mm
00:08 -15.1 °C -21.5 °C 34567.7 hPa WSW 6 km/h 6.3 km/h 43 % 0 mm
00:10 -15.6 °C -21.3 °C 34669.3 hPa WSW 7.7 km/h 12.9 km/h 47 % 0 mm
00:20 -15.5 °C -21.2 °C 34669.3 hPa WSW 7.7 km/h 10.3 km/h 47 % 0 mm
00:30 -15.5 °C -21.2 °C 34669.3 hPa WSW 7.7 km/h 10.3 km/h 47 % 0 mm
00:40 -15.7 °C -21.4 °C 34635.4 hPa WSW 5.1 km/h 7.7 km/h 47 % 0 mm
00:50 -15.9 °C -21.6 °C 34669.3 hPa SE 5.1 km/h 5.1 km/h 47 % 0 mm
01:00 -15.9 °C -21.5 °C 34669.3 hPa SW 2.6 km/h 7.7 km/h 48 % 0 mm
01:20 -16.3 °C -21.8 °C 34669.3 hPa West 2.6 km/h 5.1 km/h 48 % 0 mm
01:30 -16.4 °C -21.9 °C 34669.3 hPa NW 2.6 km/h 2.6 km/h 48 % 0 mm
01:40 -16.5 °C -22 °C 34703.1 hPa Calm   7.7 km/h 48 % 0 mm
01:50 -16.7 °C -22.2 °C 34740.4 hPa Calm   2.6 km/h 48 % 0 mm
02:00 -16.6 °C -22.1 °C 34740.4 hPa NNE 2.6 km/h 7.7 km/h 48 % 0 mm
02:10 -16.9 °C -22.4 °C 34740.4 hPa West 5.1 km/h 7.7 km/h 48 % 0 mm
02:20 -17 °C -22.4 °C 34740.4 hPa Calm   2.6 km/h 48 % 0 mm
02:30 -16.9 °C -22.3 °C 34740.4 hPa WNW 2.6 km/h 5.1 km/h 49 % 0 mm
02:40 -16.6 °C -21.8 °C 34740.4 hPa West 2.6 km/h 5.1 km/h 50 % 0 mm
02:50 -16.6 °C -21.9 °C 34740.4 hPa Calm   5.1 km/h 49 % 0 mm
03:00 -16.3 °C -21.5 °C 34740.4 hPa Calm   7.7 km/h 50 % 0 mm
03:10 -15.9 °C -21.3 °C 34740.4 hPa North 2.6 km/h 2.6 km/h 49 % 0 mm
03:20 -15.6 °C -21 °C 34740.4 hPa NW 2.6 km/h 2.6 km/h 49 % 0 mm
03:30 -15.6 °C -21 °C 34740.4 hPa West 5.1 km/h 7.7 km/h 49 % 0 mm
03:40 -15.6 °C -21 °C 34740.4 hPa SW 2.6 km/h 7.7 km/h 49 % 0 mm
03:50 -14.9 °C -20.4 °C 34774.2 hPa SW 2.6 km/h 2.6 km/h 49 % 0 mm
04:00 -14.8 °C -20.3 °C 34774.2 hPa East 2.6 km/h 5.1 km/h 49 % 0 mm
04:40 -14.8 °C -20.4 °C 34774.2 hPa NE 2.6 km/h 10.3 km/h 48 % 0 mm
04:50 -14.6 °C -20.4 °C 34808.1 hPa ENE 5.1 km/h 7.7 km/h 47 % 0 mm
10:53 -14.2 °C -20.1 °C 34808.1 hPa South 6 km/h   47 % 0 mm
10:54 -14.1 °C -19.9 °C 34808.1 hPa South 6 km/h   47 % 0 mm
10:59 -14.2 °C -20 °C 34808.1 hPa ESE 6 km/h 6 km/h 47 % 0 mm
11:01 -14.1 °C -19.9 °C 34808.1 hPa WNW 3.1 km/h   47 % 0 mm
11:03 -14.2 °C -20 °C 34808.1 hPa NNE 6.8 km/h 6.8 km/h 47 % 0 mm
11:06 -14.3 °C -20.1 °C 34808.1 hPa ENE 6 km/h 6 km/h 47 % 0 mm
11:11 -14.3 °C -20.1 °C 34808.1 hPa NE 9 km/h 9 km/h 47 % 0 mm
11:12 -14.3 °C -20.1 °C 34808.1 hPa ENE 6 km/h 6.3 km/h 47 % 0 mm
11:16 -14.1 °C -19.9 °C 34808.1 hPa North 9 km/h 9 km/h 47 % 0 mm
11:18 -13.9 °C -19.8 °C 34808.1 hPa NW 3.1 km/h 3.1 km/h 47 % 0 mm
11:21 -13.9 °C -19.8 °C 34808.1 hPa NE 6 km/h 6 km/h 47 % 0 mm
11:24 -13.8 °C -19.7 °C 34808.1 hPa ENE 7.6 km/h 7.6 km/h 47 % 0 mm
11:28 -13.7 °C -19.6 °C 34808.1 hPa North 6 km/h 6 km/h 47 % 0 mm
11:32 -13.6 °C -19.7 °C 34808.1 hPa ESE 3.1 km/h   46 % 0 mm
11:36 -13.6 °C -19.6 °C 34808.1 hPa ESE 6 km/h 6.3 km/h 46 % 0 mm
11:37 -13.6 °C -19.7 °C 34808.1 hPa East 6 km/h 6 km/h 46 % 0 mm
11:38 -13.6 °C -19.7 °C 34808.1 hPa East 6 km/h 6 km/h 46 % 0 mm
11:43 -13.5 °C -19.6 °C 34774.2 hPa ENE 9 km/h   46 % 0 mm
11:48 -13.1 °C -19 °C 34774.2 hPa South 9 km/h   47 % 0 mm
11:50 -12.9 °C -18.9 °C 34774.2 hPa SW 6 km/h 6 km/h 47 % 0 mm
11:55 -12.9 °C -19.1 °C 34774.2 hPa ENE 6 km/h 6 km/h 46 % 0 mm
11:56 -12.9 °C -19.1 °C 34774.2 hPa ENE 9 km/h 9 km/h 46 % 0 mm
11:59 -12.9 °C -19.1 °C 34774.2 hPa NE 6 km/h 6.3 km/h 46 % 0 mm
12:04 -12.7 °C -18.7 °C 34774.2 hPa SW 11.9 km/h 11.9 km/h 47 % 0 mm
12:07 -12.7 °C -18.7 °C 34774.2 hPa SW 9 km/h 9 km/h 47 % 0 mm
12:10 -12.5 °C -18.7 °C 34774.2 hPa ESE 7.6 km/h 7.6 km/h 46 % 0 mm
12:15 -12.5 °C -18.7 °C 34740.4 hPa East 8 km/h 8 km/h 46 % 0 mm
12:20 -12.6 °C -18.8 °C 34740.4 hPa ESE 6.3 km/h 6.8 km/h 45 % 0 mm
12:21 -12.6 °C -18.8 °C 34740.4 hPa ESE 6 km/h 6 km/h 45 % 0 mm
12:26 -12.6 °C -18.8 °C 34740.4 hPa NNE 6 km/h 6.3 km/h 45 % 0 mm
12:31 -12.4 °C -18.7 °C 34740.4 hPa NNE 6 km/h 6.3 km/h 45 % 0 mm
12:36 -12.3 °C -18.7 °C 34740.4 hPa WSW 8.5 km/h 8.5 km/h 45 % 0 mm
12:37 -12.3 °C -18.4 °C 34740.4 hPa SW 9.3 km/h 9.3 km/h 46 % 0 mm
12:40 -12.2 °C -18.4 °C 34740.4 hPa NNW 9 km/h 9 km/h 46 % 0 mm
12:43 -12.1 °C -18.4 °C 34740.4 hPa West 9 km/h 9 km/h 45 % 0 mm
12:48 -11.9 °C -18.2 °C 34740.4 hPa SW 8 km/h 8 km/h 46 % 0 mm
12:51 -11.8 °C -18.2 °C 34740.4 hPa NNE 11.9 km/h 11.9 km/h 45 % 0 mm
12:54 -12.1 °C -18.4 °C 34740.4 hPa NE 11.9 km/h 11.9 km/h 45 % 0 mm
12:59 -11.8 °C -18.2 °C 34740.4 hPa WSW 11.9 km/h 11.9 km/h 45 % 0 mm
13:00 -11.8 °C -18.2 °C 34740.4 hPa WSW 11.9 km/h 11.9 km/h 45 % 0 mm
13:01 -11.8 °C -18.2 °C 34740.4 hPa WSW 11.9 km/h 11.9 km/h 45 % 0 mm
13:06 -11.9 °C -18.5 °C 34740.4 hPa WNW 6.3 km/h 6.3 km/h 44 % 0 mm
13:11 -11.7 °C -18.1 °C 34740.4 hPa SSW 11.9 km/h 11.9 km/h 45 % 0 mm
13:16 -11.5 °C -18.1 °C 34740.4 hPa SW 17.9 km/h 17.9 km/h 44 % 0 mm
13:21 -11.4 °C -18.2 °C 34740.4 hPa WSW 15 km/h 15 km/h 43 % 0 mm
13:26 -11.4 °C -18.2 °C 34740.4 hPa West 20.9 km/h 20.9 km/h 43 % 0 mm
13:27 -11.4 °C -18.2 °C 34740.4 hPa West 20.9 km/h 20.9 km/h 43 % 0 mm
13:29 -11.5 °C -18.2 °C 34740.4 hPa WSW 26.9 km/h 26.9 km/h 43 % 0 mm
13:32 -11.5 °C -18.4 °C 34740.4 hPa WSW 15.3 km/h 15.3 km/h 42 % 0 mm
13:34 -11.4 °C -18.4 °C 34740.4 hPa SW 15 km/h 15 km/h 42 % 0 mm
13:39 -11.4 °C -18.3 °C 34740.4 hPa SW 11.9 km/h 11.9 km/h 42 % 0 mm
13:41 -11.4 °C -18.4 °C 34740.4 hPa WNW 11.9 km/h 11.9 km/h 42 % 0 mm
13:44 -11.4 °C -18.4 °C 34740.4 hPa SSW 11.9 km/h 11.9 km/h 42 % 0 mm
13:47 -11.4 °C -18.4 °C 34740.4 hPa NNW 15.3 km/h 15.3 km/h 42 % 0 mm
13:50 -11.6 °C -18.5 °C 34740.4 hPa SW 22 km/h 22 km/h 42 % 0 mm
13:54 -11.5 °C -18.6 °C 34740.4 hPa WSW 15.6 km/h 15.6 km/h 41 % 0 mm
13:55 -11.6 °C -18.7 °C 34740.4 hPa WSW 9 km/h 9 km/h 41 % 0 mm
14:00 -11.6 °C -18.7 °C 34740.4 hPa South 16.6 km/h 16.6 km/h 41 % 0 mm
14:01 -11.6 °C -18.7 °C 34740.4 hPa WSW 11.9 km/h 12.2 km/h 41 % 0 mm
14:06 -11.7 °C -18.8 °C 34740.4 hPa WSW 20.9 km/h 20.9 km/h 41 % 0 mm
14:08 -11.7 °C -19 °C 34740.4 hPa WNW 20.9 km/h 20.9 km/h 40 % 0 mm
14:14 -11.8 °C -19.1 °C 34740.4 hPa WSW 20.9 km/h 20.9 km/h 40 % 0 mm
14:19 -11.8 °C -19.3 °C 34740.4 hPa NNW 15 km/h 15.3 km/h 39 % 0 mm
14:20 -11.8 °C -19.3 °C 34740.4 hPa NNW 15 km/h 15.3 km/h 39 % 0 mm
14:25 -11.8 °C -19.2 °C 34740.4 hPa West 23.8 km/h 23.8 km/h 39 % 0 mm
14:27 -11.8 °C -19.2 °C 34740.4 hPa WSW 23.8 km/h 23.8 km/h 39 % 0 mm
14:31 -11.7 °C -19.2 °C 34740.4 hPa West 23.8 km/h 23.8 km/h 39 % 0 mm
14:34 -11.7 °C -19.1 °C 34740.4 hPa WSW 17.9 km/h 17.9 km/h 39 % 0 mm
14:36 -11.7 °C -19.1 °C 34740.4 hPa West 17.9 km/h 17.9 km/h 39 % 0 mm
14:41 -11.7 °C -19.3 °C 34703.1 hPa WSW 19.6 km/h 19.6 km/h 38 % 0 mm
14:46 -11.6 °C -19.3 °C 34703.1 hPa WNW 23.8 km/h 23.8 km/h 38 % 0 mm
14:50 -11.5 °C -19.2 °C 34703.1 hPa West 20.9 km/h 20.9 km/h 38 % 0 mm
14:51 -11.5 °C -19.2 °C 34703.1 hPa West 20.9 km/h 20.9 km/h 38 % 0 mm
14:55 -11.5 °C -19.4 °C 34703.1 hPa WSW 8.5 km/h 8.5 km/h 37 % 0 mm
15:00 -11.4 °C -19.3 °C 34703.1 hPa NNE 15 km/h 15 km/h 37 % 0 mm
15:01 -11.3 °C -19.2 °C 34703.1 hPa WSW 11.9 km/h 11.9 km/h 37 % 0 mm
15:06 -11.3 °C -19.2 °C 34703.1 hPa West 15 km/h 15 km/h 37 % 0 mm
15:08 -11.3 °C -19.4 °C 34703.1 hPa WSW 15 km/h 15 km/h 36 % 0 mm
15:13 -11.3 °C -19.4 °C 34703.1 hPa WNW 9 km/h 9 km/h 36 % 0 mm
15:17 -11.3 °C -19.4 °C 34703.1 hPa NNW 15 km/h 15 km/h 36 % 0 mm
15:19 -11.2 °C -19.3 °C 34703.1 hPa NNW 12.7 km/h 12.7 km/h 36 % 0 mm
15:24 -11.3 °C -19.6 °C 34703.1 hPa NNW 17.9 km/h 17.9 km/h 35 % 0 mm
15:25 -11.3 °C -19.8 °C 34703.1 hPa WSW 27.7 km/h 27.7 km/h 34 % 0 mm
15:30 -11.3 °C -19.9 °C 34703.1 hPa West 12.9 km/h 28.5 km/h 34 % 0 mm
15:34 -11.4 °C -20.1 °C 34703.1 hPa NW 16.6 km/h 16.6 km/h 33 % 0 mm
15:35 -11.4 °C -20.2 °C 34703.1 hPa WSW 23.8 km/h 23.8 km/h 33 % 0 mm
15:40 -11.3 °C -20.1 °C 34703.1 hPa WSW 15 km/h 15 km/h 33 % 0 mm
15:41 -11.3 °C -20.1 °C 34703.1 hPa WSW 15 km/h 15 km/h 33 % 0 mm
15:46 -11.2 °C -20 °C 34703.1 hPa WSW 15 km/h 15 km/h 33 % 0 mm
15:47 -11.2 °C -20 °C 34703.1 hPa SW 9 km/h 9 km/h 33 % 0 mm
15:48 -11.2 °C -20 °C 34703.1 hPa SW 9 km/h 9 km/h 33 % 0 mm
15:52 -11.2 °C -19.9 °C 34703.1 hPa SSW 9 km/h 9 km/h 33 % 0 mm
15:54 -11.2 °C -20 °C 34703.1 hPa WNW 20.9 km/h 20.9 km/h 33 % 0 mm
15:58 -11.3 °C -20.1 °C 34703.1 hPa SW 20.9 km/h 20.9 km/h 33 % 0 mm
16:03 -11.3 °C -20.3 °C 34703.1 hPa WNW 23.8 km/h 23.8 km/h 32 % 0 mm
16:05 -11.3 °C -20.3 °C 34703.1 hPa WNW 17.9 km/h 17.9 km/h 32 % 0 mm
16:10 -11.3 °C -20.3 °C 34703.1 hPa WNW 15 km/h 15 km/h 32 % 0 mm
16:12 -11.3 °C -20.3 °C 34703.1 hPa West 9 km/h 9 km/h 32 % 0 mm
16:17 -11.3 °C -20.3 °C 34703.1 hPa West 9 km/h 9 km/h 32 % 0 mm
16:20 -11.3 °C -20.3 °C 34703.1 hPa NW 11.9 km/h 11.9 km/h 32 % 0 mm
16:25 -11.3 °C -20.3 °C 34703.1 hPa West 9 km/h 9 km/h 32 % 0 mm
16:27 -11.3 °C -20.3 °C 34740.4 hPa West 15 km/h 15 km/h 32 % 0 mm
16:32 -11.3 °C -20.3 °C 34740.4 hPa SW 6 km/h 6 km/h 32 % 0 mm
16:35 -11.3 °C -20.3 °C 34740.4 hPa WNW 6 km/h 6 km/h 32 % 0 mm
16:38 -11.3 °C -20.3 °C 34740.4 hPa West 6 km/h 6 km/h 32 % 0 mm
16:41 -11.3 °C -20.3 °C 34703.1 hPa West 6 km/h 6 km/h 32 % 0 mm
16:46 -11.3 °C -20.3 °C 34703.1 hPa WSW 6.3 km/h 6.3 km/h 32 % 0 mm
16:47 -11.3 °C -20.3 °C 34703.1 hPa West 9 km/h 9.3 km/h 32 % 0 mm
16:51 -11.4 °C -20.4 °C 34703.1 hPa West 6 km/h 6 km/h 32 % 0 mm
16:52 -11.4 °C -20.4 °C 34703.1 hPa West 9 km/h 9 km/h 32 % 0 mm
16:57 -11.6 °C -20.5 °C 34740.4 hPa WNW 4.2 km/h 4.2 km/h 32 % 0 mm
16:58 -11.6 °C -20.5 °C 34740.4 hPa West 7.6 km/h 7.6 km/h 32 % 0 mm
17:03 -11.7 °C -20.6 °C 34740.4 hPa WSW 9 km/h 9 km/h 32 % 0 mm
17:07 -11.8 °C -20.7 °C 34740.4 hPa WNW 6 km/h 6 km/h 32 % 0 mm
17:09 -11.8 °C -21 °C 34740.4 hPa West 6.3 km/h 6.3 km/h 31 % 0 mm
17:14 -12.1 °C -21.2 °C 34740.4 hPa Calm     31 % 0 mm
17:15 -12.1 °C -21.2 °C 34740.4 hPa Calm     31 % 0 mm
17:20 -12.2 °C -21.3 °C 34740.4 hPa West 6 km/h   31 % 0 mm
17:21 -12.3 °C -21.3 °C 34740.4 hPa WSW 6 km/h 6 km/h 31 % 0 mm
17:26 -12.4 °C -21.5 °C 34740.4 hPa Calm     31 % 0 mm
17:29 -12.6 °C -21.6 °C 34740.4 hPa WSW 6 km/h 6 km/h 31 % 0 mm
17:30 -12.6 °C -21.6 °C 34740.4 hPa WSW 6 km/h 6 km/h 31 % 0 mm
17:35 -12.7 °C -21.7 °C 34740.4 hPa WNW 6 km/h 6 km/h 31 % 0 mm
17:36 -12.7 °C -21.7 °C 34740.4 hPa SW 6 km/h 6 km/h 31 % 0 mm
17:38 -12.7 °C -21.8 °C 34740.4 hPa WSW 6.8 km/h 6.8 km/h 31 % 0 mm
17:41 -12.7 °C -21.8 °C 34740.4 hPa WSW 9 km/h 9 km/h 31 % 0 mm
17:44 -12.8 °C -21.8 °C 34740.4 hPa West 9 km/h 9 km/h 31 % 0 mm
17:46 -12.8 °C -21.8 °C 34740.4 hPa WNW 6 km/h 6 km/h 31 % 0 mm
17:50 -12.9 °C -21.9 °C 34740.4 hPa NW 3.1 km/h 3.1 km/h 31 % 0 mm
17:52 -13 °C -22 °C 34740.4 hPa West 6 km/h 6 km/h 31 % 0 mm
17:57 -13.1 °C -22.1 °C 34703.1 hPa WNW 5.6 km/h 5.6 km/h 31 % 0 mm
17:58 -13.1 °C -22.1 °C 34703.1 hPa WNW 6 km/h 6 km/h 31 % 0 mm
18:03 -13.2 °C -22.2 °C 34703.1 hPa West 9 km/h 9 km/h 31 % 0 mm
18:06 -13.2 °C -22.2 °C 34703.1 hPa West 6 km/h 6 km/h 31 % 0 mm
18:09 -13.2 °C -22.2 °C 34703.1 hPa West 6 km/h 6 km/h 31 % 0 mm
18:14 -13.3 °C -22.3 °C 34703.1 hPa West 9 km/h 9 km/h 31 % 0 mm
18:19 -13.5 °C -22.4 °C 34703.1 hPa WSW 8.5 km/h 8.5 km/h 31 % 0 mm
18:20 -15.2 °C -21.9 °C 34808.1 hPa NNW 2.6 km/h 5.1 km/h 41 % 0 mm
18:21 -13.5 °C -22.4 °C 34703.1 hPa WSW 9 km/h 9 km/h 31 % 0 mm
18:24 -13.7 °C -22.6 °C 34703.1 hPa SW 8.5 km/h 8.5 km/h 31 % 0 mm
18:26 -13.7 °C -22.6 °C 34740.4 hPa WSW 7.6 km/h 7.6 km/h 31 % 0 mm
18:29 -13.8 °C -22.7 °C 34740.4 hPa SW 3.7 km/h   31 % 0 mm
18:30 -15.2 °C -21.8 °C 34808.1 hPa NNW 2.6 km/h 5.1 km/h 42 % 0 mm
18:31 -13.8 °C -22.7 °C 34740.4 hPa North 6 km/h   31 % 0 mm
18:37 -13.8 °C -22.7 °C 34740.4 hPa WSW 9 km/h 9 km/h 31 % 0 mm
18:40 -15.1 °C -21.6 °C 34808.1 hPa North 5.1 km/h 7.7 km/h 42 % 0 mm
18:42 -13.8 °C -22.7 °C 34740.4 hPa WSW 8 km/h 8 km/h 31 % 0 mm
18:43 -13.8 °C -22.7 °C 34740.4 hPa West 9 km/h 9 km/h 31 % 0 mm
18:44 -13.8 °C -22.7 °C 34740.4 hPa WNW 9 km/h 9 km/h 31 % 0 mm
18:49 -13.8 °C -22.4 °C 34740.4 hPa West 6 km/h 6 km/h 32 % 0 mm
18:50 -15.1 °C -21.7 °C 34808.1 hPa North 2.6 km/h 5.1 km/h 42 % 0 mm
19:00 -15.2 °C -21.8 °C 34808.1 hPa NNE 2.6 km/h 5.1 km/h 42 % 0 mm
19:05 -13.7 °C -22.4 °C 34740.4 hPa WSW 9 km/h 9 km/h 32 % 0 mm
19:06 -13.7 °C -22.4 °C 34740.4 hPa SW 6.3 km/h 6.8 km/h 32 % 0 mm
19:07 -13.7 °C -22.4 °C 34740.4 hPa WSW 7.6 km/h 7.6 km/h 32 % 0 mm
19:10 -15.2 °C -21.6 °C 34808.1 hPa NNE 2.6 km/h 5.1 km/h 43 % 0 mm
19:12 -13.7 °C -22.4 °C 34740.4 hPa WNW 6.8 km/h 6.8 km/h 32 % 0 mm
19:17 -13.7 °C -22.4 °C 34740.4 hPa WSW 8.5 km/h 8.5 km/h 32 % 0 mm
19:19 -13.7 °C -22.4 °C 34740.4 hPa West 9 km/h 9 km/h 32 % 0 mm
19:20 -15.2 °C -21.6 °C 34841.9 hPa NNW 2.6 km/h 5.1 km/h 43 % 0 mm
19:21 -13.7 °C -22.4 °C 34740.4 hPa WNW 6 km/h 6 km/h 32 % 0 mm
19:26 -13.8 °C -22.4 °C 34774.2 hPa WSW 6.3 km/h 6.3 km/h 32 % 0 mm
19:27 -13.8 °C -22.4 °C 34774.2 hPa WSW 6.3 km/h 6.3 km/h 32 % 0 mm
19:28 -13.8 °C -22.4 °C 34774.2 hPa WSW 6.3 km/h 6.3 km/h 32 % 0 mm
19:30 -15.4 °C -21.8 °C 34841.9 hPa West 2.6 km/h 5.1 km/h 43 % 0 mm
19:33 -13.9 °C -22.6 °C 34774.2 hPa SW 6 km/h 6 km/h 32 % 0 mm
19:36 -13.9 °C -22.6 °C 34774.2 hPa West 6 km/h 6 km/h 32 % 0 mm
19:38 -13.9 °C -22.6 °C 34774.2 hPa West 3.1 km/h   32 % 0 mm
19:40 -15.4 °C -21.8 °C 34841.9 hPa Calm   7.7 km/h 43 % 0 mm
19:43 -13.9 °C -22.3 °C 34774.2 hPa WSW 6 km/h 6 km/h 33 % 0 mm
19:45 -13.9 °C -22.4 °C 34774.2 hPa WSW 6.3 km/h 6.3 km/h 33 % 0 mm
19:50 -14.1 °C -22.4 °C 34774.2 hPa WSW 4.2 km/h 4.2 km/h 33 % 0 mm
19:51 -14.1 °C -22.4 °C 34774.2 hPa SW 6 km/h 6 km/h 33 % 0 mm
19:54 -14.2 °C -22.6 °C 34774.2 hPa WNW 3.1 km/h   33 % 0 mm
19:56 -14.2 °C -22.6 °C 34774.2 hPa SW 6 km/h 6 km/h 33 % 0 mm
20:00 -15.3 °C -21.6 °C 34841.9 hPa North 2.6 km/h 10.3 km/h 44 % 0 mm
20:01 -14.3 °C -22.7 °C 34774.2 hPa SSW 6 km/h 6 km/h 33 % 0 mm
20:04 -14.3 °C -22.7 °C 34774.2 hPa South 4.2 km/h   33 % 0 mm
20:07 -14.4 °C -22.8 °C 34774.2 hPa SW 6.3 km/h 6.3 km/h 33 % 0 mm
20:10 -15.4 °C -21.6 °C 34875.8 hPa NNE 2.6 km/h 10.3 km/h 44 % 0 mm
20:12 -14.4 °C -22.8 °C 34774.2 hPa WNW 3.1 km/h 4.2 km/h 33 % 0 mm
20:15 -14.4 °C -22.8 °C 34774.2 hPa WSW 4.2 km/h 4.2 km/h 33 % 0 mm
20:20 -14.3 °C -22.4 °C 34774.2 hPa NW 6 km/h 6 km/h 34 % 0 mm
20:22 -14.2 °C -22.4 °C 34774.2 hPa East 6 km/h 6 km/h 34 % 0 mm
20:27 -14.2 °C -22.4 °C 34774.2 hPa West 3.1 km/h   34 % 0 mm
20:30 -14.3 °C -22.4 °C 34774.2 hPa NE 3.1 km/h   34 % 0 mm
20:35 -14.3 °C -22.4 °C 34774.2 hPa WNW 6 km/h 6 km/h 34 % 0 mm
20:40 -14.2 °C -22.4 °C 34774.2 hPa Calm     34 % 0 mm
20:45 -14.3 °C -22.4 °C 34808.1 hPa NNE 4.2 km/h 4.2 km/h 34 % 0 mm
20:46 -14.3 °C -22.4 °C 34808.1 hPa NW 6.3 km/h 6.3 km/h 34 % 0 mm
20:50 -15.7 °C -21.7 °C 34841.9 hPa North 2.6 km/h 5.1 km/h 45 % 0 mm
20:51 -14.3 °C -22.4 °C 34808.1 hPa SE 6 km/h 6 km/h 34 % 0 mm
20:52 -14.3 °C -22.6 °C 34808.1 hPa West 6 km/h 6 km/h 34 % 0 mm
20:57 -14.2 °C -22.4 °C 34808.1 hPa NNE 9 km/h 9 km/h 34 % 0 mm
20:58 -14.3 °C -22.4 °C 34808.1 hPa ESE 9 km/h 9 km/h 34 % 0 mm
20:59 -14.3 °C -22.4 °C 34808.1 hPa ESE 9 km/h 9 km/h 34 % 0 mm
21:00 -15.7 °C -21.7 °C 34841.9 hPa North 2.6 km/h 2.6 km/h 45 % 0 mm
21:04 -14.4 °C -22.6 °C 34808.1 hPa ENE 9 km/h 9 km/h 34 % 0 mm
21:07 -14.3 °C -22.6 °C 34808.1 hPa NE 6 km/h 6 km/h 34 % 0 mm
21:10 -15.8 °C -21.8 °C 34875.8 hPa Calm   5.1 km/h 45 % 0 mm
21:12 -14.3 °C -22.6 °C 34808.1 hPa NNE 9 km/h 9 km/h 34 % 0 mm
21:15 -14.4 °C -22.6 °C 34808.1 hPa ENE 11.9 km/h 11.9 km/h 34 % 0 mm
21:18 -14.4 °C -22.6 °C 34808.1 hPa NNE 9 km/h 9 km/h 34 % 0 mm
21:23 -14.4 °C -22.6 °C 34808.1 hPa ENE 6.3 km/h 6.3 km/h 34 % 0 mm
21:24 -14.4 °C -22.6 °C 34808.1 hPa ENE 9 km/h 9 km/h 34 % 0 mm
21:29 -14.4 °C -22.6 °C 34774.2 hPa NNE 3.1 km/h 4.2 km/h 34 % 0 mm
21:31 -14.5 °C -22.7 °C 34774.2 hPa NNW 3.7 km/h 3.7 km/h 34 % 0 mm
21:35 -14.5 °C -22.7 °C 34774.2 hPa NW 6 km/h 6 km/h 34 % 0 mm
21:36 -14.5 °C -22.7 °C 34774.2 hPa NE 3.1 km/h 3.1 km/h 34 % 0 mm
21:40 -15.7 °C -21.6 °C 34841.9 hPa North 2.6 km/h 5.1 km/h 46 % 0 mm
21:41 -14.6 °C -22.7 °C 34774.2 hPa NNE 9.3 km/h 9.3 km/h 34 % 0 mm
21:43 -14.5 °C -22.4 °C 34774.2 hPa NNW 6 km/h 6 km/h 35 % 0 mm
21:45 -14.5 °C -22.4 °C 34774.2 hPa ENE 6.8 km/h 6.8 km/h 35 % 0 mm
21:50 -14.6 °C -22.5 °C 34774.2 hPa NE 10.3 km/h 10.3 km/h 35 % 0 mm
21:55 -14.5 °C -22.4 °C 34808.1 hPa NNW 9 km/h 9 km/h 35 % 0 mm
22:00 -14.6 °C -22.3 °C 34808.1 hPa SE 6.3 km/h 6.3 km/h 36 % 0 mm
22:02 -14.6 °C -22.3 °C 34808.1 hPa WSW 6 km/h 6 km/h 36 % 0 mm
22:03 -14.6 °C -22.3 °C 34808.1 hPa WSW 6 km/h 6 km/h 36 % 0 mm
22:08 -14.6 °C -22.3 °C 34808.1 hPa Calm     36 % 0 mm
22:09 -14.7 °C -22.4 °C 34808.1 hPa Calm     36 % 0 mm
22:10 -15.9 °C -21.6 °C 34841.9 hPa NNE 2.6 km/h 7.7 km/h 47 % 0 mm
22:14 -14.7 °C -22.4 °C 34808.1 hPa NNE 6 km/h 6 km/h 36 % 0 mm
22:15 -14.7 °C -22.4 °C 34808.1 hPa West 2.6 km/h 5.1 km/h 36 % 0 mm
22:16 -14.7 °C -22.4 °C 34808.1 hPa ENE 6 km/h 6 km/h 36 % 0 mm
22:20 -15.9 °C -21.6 °C 34841.9 hPa NNE 5.1 km/h 7.7 km/h 47 % 0 mm
22:21 -14.8 °C -22.3 °C 34808.1 hPa North 3.1 km/h   37 % 0 mm
22:22 -14.8 °C -22.3 °C 34808.1 hPa Calm     37 % 0 mm
22:27 -14.8 °C -22.3 °C 34808.1 hPa WNW 6 km/h   37 % 0 mm
22:28 -14.8 °C -22.3 °C 34808.1 hPa NE 6 km/h   37 % 0 mm
22:30 -15.9 °C -21.6 °C 34841.9 hPa NNE 2.6 km/h 5.1 km/h 47 % 0 mm
22:33 -14.8 °C -22.1 °C 34808.1 hPa NW 2.3 km/h   38 % 0 mm
22:36 -14.8 °C -22.2 °C 34808.1 hPa WNW 3.1 km/h   38 % 0 mm
22:38 -14.9 °C -22.2 °C 34808.1 hPa SW 3.1 km/h 3.1 km/h 38 % 0 mm
22:40 -16 °C -21.7 °C 34841.9 hPa North 2.6 km/h 2.6 km/h 47 % 0 mm
22:41 -15 °C -22.3 °C 34808.1 hPa Calm     38 % 0 mm
22:46 -15.1 °C -22.4 °C 34808.1 hPa Calm     38 % 0 mm
22:47 -15.1 °C -22.4 °C 34808.1 hPa Calm     38 % 0 mm
22:50 -16.1 °C -21.6 °C 34841.9 hPa Calm   7.7 km/h 48 % 0 mm
22:52 -15.1 °C -22.2 °C 34808.1 hPa Calm     39 % 0 mm
22:56 -15.1 °C -22.2 °C 34774.2 hPa Calm     39 % 0 mm
22:58 -15.1 °C -22.2 °C 34774.2 hPa Calm     39 % 0 mm
23:00 -16.1 °C -21.6 °C 34841.9 hPa NW 2.6 km/h 2.6 km/h 48 % 0 mm
23:01 -15.1 °C -22.2 °C 34774.2 hPa WNW 3.1 km/h 3.1 km/h 39 % 0 mm
23:05 -15 °C -22.1 °C 34774.2 hPa WNW 3.7 km/h 3.7 km/h 39 % 0 mm
23:10 -15 °C -22.1 °C 34808.1 hPa West 6 km/h 6 km/h 39 % 0 mm
23:15 -15 °C -21.9 °C 34808.1 hPa NE 3.7 km/h 3.7 km/h 40 % 0 mm
23:17 -15 °C -21.9 °C 34808.1 hPa ENE 5.1 km/h 5.1 km/h 40 % 0 mm
23:20 -16.1 °C -21.5 °C 34808.1 hPa NW 2.6 km/h 5.1 km/h 49 % 0 mm
23:22 -15 °C -21.9 °C 34808.1 hPa SSW 9 km/h 9 km/h 40 % 0 mm
23:27 -15.1 °C -22 °C 34774.2 hPa WSW 3.1 km/h   40 % 0 mm
23:30 -16.1 °C -21.3 °C 34808.1 hPa NNE 2.6 km/h 7.7 km/h 50 % 0 mm
23:32 -15.1 °C -22 °C 34774.2 hPa Calm     40 % 0 mm
23:35 -15.1 °C -22 °C 34774.2 hPa South 3.1 km/h   40 % 0 mm
23:38 -15.1 °C -21.8 °C 34774.2 hPa ENE 3.1 km/h   41 % 0 mm
23:41 -15.1 °C -21.8 °C 34808.1 hPa NNE 3.1 km/h   41 % 0 mm
23:43 -15.1 °C -21.8 °C 34808.1 hPa ENE 6 km/h 6 km/h 41 % 0 mm
23:48 -15.1 °C -21.8 °C 34808.1 hPa NNW 3.1 km/h 3.1 km/h 41 % 0 mm
23:50 -16.1 °C -21.2 °C 34808.1 hPa NE 2.6 km/h 5.1 km/h 51 % 0 mm
23:53 -15.1 °C -21.9 °C 34808.1 hPa NNE 6.8 km/h 6.8 km/h 41 % 0 mm
23:54 -15.1 °C -21.9 °C 34808.1 hPa East 6 km/h 6 km/h 41 % 0 mm
23:57 -15.1 °C -21.9 °C 34808.1 hPa ENE 4.2 km/h 4.2 km/h 41 % 0 mm
Meteo Sesrovires
Elogis d' Weather Underground - 2 mb

Guio original per  Jim McMurry - jmcmurry@mwt.net Adaptat per a la plantilla per  Wim van der Kuil - Leuven-Template.eu

Trobareu la nostra informacio del temps tambe a:

Weather Underground

AWEKAS